Elm Hall, Michigan
Current Conditions -  °F | °C
As of 3:51 AM on Thursday 23 Oct 2014 (Local Time) from KAMN Reporting Station
Haze Haze  
Wind Chill: 31°   Ceiling: 300
Heat Index: 31°   Visibility: 0.75mi
Dew Point: 30°   Wind: 0mph
Humidity: 99%   Direction: NA
Pressure: 30.28"   Gusts: NA
Location:  43.36°N, 84.84°W
Report Text: KAMN 230751Z AUTO 00000KT 3/4SM BR OVC003 M01/M01 A3028 RMK AO2 T10081010
Loading
Personal Weather Stations






























Interactive Weather Map
Tropical Storm Tracking
New forecast layout! Learn more

10-Day Weather Forecast

Advertisements
Track Severe Weather on mobile